Caledon, Canada
Current Conditions -  °F | °C
As of 9:00 AM on Thursday 29 Jan 2015 (Local Time) from CYYZ Reporting Station
Overcast Overcast  
Wind Chill: -8°   Ceiling: 7000
Heat Index: -2°   Visibility: 15mi
Dew Point: -11°   Wind: 13mph
Humidity: 51%   Direction: 130°SE
Pressure: 29.96"   Gusts: 20mph
Location:  43.87°N, 80°W
Report Text: CYYZ 291400Z 13011G17KT 15SM SCT050 OVC070 M02/M11 A2996 RMK SC3AC5 PRESFR SLP155
Loading
Personal Weather Stations






























Interactive Weather Map New forecast layout! Learn more

10-Day Weather Forecast

Advertisements
Track Severe Weather on mobile